»·PEaware :: N214PP L52-L88

N214PP :: L52-L88

FLIGHT INFORMATION

Flight Status: Arrived
Operator: Privately registered:
United States
More flights under this callsign
Pilot: Frank P. (21034)
Aircraft: CESSNA 172 SKYHAWK
(C172)
More flights by this aircraft type
Origin: L52 Oceano Co
United States
Destination: L88 New Cuyama
United States
More flights between these airports :: More routes between these airports
Route: L52 L88
File this flight plan on PilotEdge
Remarks: for CAT 1
Altitude:
(Current/Filed)
7,500ft
Speed:
(Current/Filed)
115kts
Departed: 06-Dec-18 03:25 PM
Arrived: 06-Dec-18 04:01 PM
Distance/Time
Traveled:
47nm/0:36
Distance/Time
To Go:
Arrived

Flight Plot

Page will automatically refresh every two minutes.


Map Options




Map Legend


Flown Route
Filed Route
Departure Airport
Arrival Airport
Navaid (VOR, NDB)
Fix

Horizontal Profiles

Position Reports

Time Latitude Longitude Heading Altitude Ground
Speed
06-Dec-18 15:15 35.103542 -120.624820 31 18ft 0kts
06-Dec-18 15:16 35.103542 -120.624820 31 18ft 0kts
06-Dec-18 15:17 35.103542 -120.624820 31 18ft 0kts
06-Dec-18 15:18 35.103556 -120.624810 30 18ft 0kts
06-Dec-18 15:19 35.103592 -120.624785 28 18ft 1kts
06-Dec-18 15:20 35.103359 -120.624839 117 18ft 6kts
06-Dec-18 15:21 35.102505 -120.624151 213 18ft 6kts
06-Dec-18 15:22 35.100936 -120.622161 124 18ft 10kts
06-Dec-18 15:23 35.099634 -120.619383 44 18ft 0kts
06-Dec-18 15:24 35.104138 -120.627298 302 179ft 74kts
06-Dec-18 15:25 35.115103 -120.649865 311 1016ft 80kts
06-Dec-18 15:26 35.121961 -120.631597 96 1727ft 84kts
06-Dec-18 15:27 35.116822 -120.603883 103 2431ft 86kts
06-Dec-18 15:28 35.108990 -120.575737 108 3094ft 88kts
06-Dec-18 15:29 35.100158 -120.547796 112 3716ft 89kts
06-Dec-18 15:30 35.090003 -120.520214 108 4305ft 89kts
06-Dec-18 15:31 35.081709 -120.491279 106 4860ft 90kts
06-Dec-18 15:32 35.070754 -120.463444 117 5387ft 91kts
06-Dec-18 15:33 35.061234 -120.434611 109 5887ft 92kts
06-Dec-18 15:34 35.054178 -120.404529 99 6352ft 93kts
06-Dec-18 15:35 35.049270 -120.373514 98 6786ft 93kts
06-Dec-18 15:36 35.045483 -120.342881 96 7181ft 94kts
06-Dec-18 15:37 35.042178 -120.310881 97 7485ft 99kts
06-Dec-18 15:38 35.037785 -120.275461 100 7616ft 112kts
06-Dec-18 15:39 35.033066 -120.239743 101 7493ft 105kts
06-Dec-18 15:40 35.027495 -120.204788 100 7532ft 105kts
06-Dec-18 15:41 35.022746 -120.169616 99 7626ft 105kts
06-Dec-18 15:42 35.017000 -120.134325 102 7682ft 108kts
06-Dec-18 15:43 35.009851 -120.096779 105 7572ft 115kts
06-Dec-18 15:44 35.001226 -120.059517 101 7522ft 114kts
06-Dec-18 15:45 34.997897 -120.020978 99 7365ft 116kts
06-Dec-18 15:46 34.991264 -119.982093 101 6826ft 116kts
06-Dec-18 15:47 34.981454 -119.944462 111 6290ft 117kts
06-Dec-18 15:48 34.970826 -119.907378 108 5793ft 115kts
06-Dec-18 15:49 34.961833 -119.870059 103 5340ft 115kts
06-Dec-18 15:50 34.954087 -119.832954 105 4826ft 107kts
06-Dec-18 15:51 34.944833 -119.798809 110 4150ft 107kts
06-Dec-18 15:52 34.935989 -119.767335 105 3744ft 91kts
06-Dec-18 15:53 34.931152 -119.742395 100 3580ft 69kts
06-Dec-18 15:54 34.926344 -119.719670 108 3462ft 70kts
06-Dec-18 15:55 34.919143 -119.697835 119 3358ft 69kts
06-Dec-18 15:56 34.908774 -119.682090 128 3250ft 58kts
06-Dec-18 15:57 34.910510 -119.667642 4 2996ft 55kts
06-Dec-18 15:59 34.925236 -119.675332 343 2680ft 58kts
06-Dec-18 16:00 34.939398 -119.683761 294 2223ft 54kts
06-Dec-18 16:01 34.942767 -119.690776 140 2207ft 3kts
06-Dec-18 16:02 34.942701 -119.690762 186 2207ft 0kts
06-Dec-18 16:03 34.942701 -119.690761 186 2207ft 0kts
06-Dec-18 16:04 34.942701 -119.690761 186 2207ft 0kts
06-Dec-18 16:05 34.942701 -119.690761 186 2207ft 0kts
06-Dec-18 16:06 34.942701 -119.690761 186 2207ft 0kts

Navigation Log

Ident Type
Flight plan parsing failed, navigation log unavailable